METAR Data
IDs: Format: Raw Decoded Include TAF

Data at: 0542 UTC 26 Sep 2018

KBQK 260535Z AUTO 00000KT 7SM CLR 22/20 A3012 RMK AO2
KBQK 260515Z AUTO 00000KT 5SM BR CLR 22/21 A3013 RMK AO2
KBQK 260455Z AUTO 00000KT 5SM BR CLR 22/21 A3013 RMK AO2
KBQK 260435Z AUTO 00000KT 5SM BR CLR 22/20 A3013 RMK AO2
KBQK 260415Z AUTO 00000KT 7SM CLR 22/21 A3013 RMK AO2
KBQK 260355Z AUTO 00000KT 10SM CLR 22/20 A3013 RMK AO2
KBQK 260335Z AUTO 00000KT 7SM CLR 22/20 A3013 RMK AO2
KBQK 260315Z AUTO 00000KT 10SM CLR 23/21 A3013 RMK AO2
KBQK 260255Z AUTO 00000KT 10SM CLR 22/21 A3013 RMK AO2
KBQK 260235Z AUTO 00000KT 10SM CLR 23/21 A3013 RMK AO2
KBQK 260215Z AUTO 00000KT 10SM CLR 23/21 A3013 RMK AO2
KBQK 260155Z AUTO 00000KT 10SM CLR 23/21 A3013 RMK AO2
KBQK 260135Z AUTO 00000KT 10SM CLR 23/21 A3012 RMK AO2
KBQK 260115Z AUTO 00000KT 10SM CLR 23/21 A3012 RMK AO2
KBQK 260055Z AUTO 00000KT 10SM CLR 23/21 A3011 RMK AO2
KBQK 260035Z AUTO 00000KT 10SM CLR 25/21 A3011 RMK AO2
KBQK 260015Z AUTO 11003KT 10SM CLR 25/21 A3010 RMK AO2
KBQK 252355Z AUTO 10004KT 10SM CLR 27/21 A3010 RMK AO2
KBQK 252335Z AUTO 11004KT 10SM CLR 27/21 A3010 RMK AO2
KBQK 252315Z AUTO 10004KT 10SM CLR 27/21 A3010 RMK AO2
KBQK 252255Z AUTO 10006KT 10SM CLR 28/21 A3009 RMK AO2
KBQK 252235Z AUTO 10007KT 10SM CLR 28/20 A3009 RMK AO2
KBQK 252215Z AUTO 12007KT 10SM CLR 29/21 A3008 RMK AO2
KBQK 252155Z AUTO 12008KT 10SM CLR 30/21 A3008 RMK AO2
KBQK 252135Z AUTO 11007KT 10SM CLR 30/21 A3008 RMK AO2
KBQK 252115Z AUTO 12007KT 10SM CLR 30/21 A3008 RMK AO2
KBQK 252055Z AUTO 08007KT 10SM SCT036 30/21 A3009 RMK AO2
KBQK 252035Z AUTO 11007KT 10SM SCT036 31/21 A3009 RMK AO2
KBQK 252015Z AUTO 09008KT 10SM CLR 31/20 A3009 RMK AO2
KBQK 251955Z AUTO 08007KT 10SM CLR 31/19 A3009 RMK AO2
KBQK 251935Z AUTO 06005KT 10SM CLR 31/19 A3009 RMK AO2
KBQK 251915Z AUTO 11005KT 10SM CLR 31/20 A3010 RMK AO2
KBQK 251855Z AUTO 07007KT 10SM CLR 31/20 A3011 RMK AO2
KBQK 251835Z AUTO 09009KT 10SM CLR 31/19 A3012 RMK AO2
KBQK 251815Z AUTO 05009KT 10SM SCT036 31/20 A3013 RMK AO2
KBQK 251755Z AUTO 05007KT 10SM SCT036 31/20 A3013 RMK AO2
KBQK 251735Z AUTO 06008KT 10SM SCT036 31/21 A3015 RMK AO2
KBQK 251715Z AUTO 06007KT 10SM SCT036 30/20 A3015 RMK AO2
KBQK 251655Z AUTO 05007KT 10SM SCT033 SCT040 31/21 A3015 RMK AO2
KBQK 251635Z AUTO 06006KT 10SM BKN031 BKN038 30/21 A3015 RMK AO2
KBQK 251615Z AUTO 08009KT 10SM SCT028 BKN033 31/22 A3016 RMK AO2
KBQK 251555Z AUTO 07009KT 10SM SCT024 SCT032 30/22 A3016 RMK AO2
KBQK 251535Z AUTO 05009G14KT 10SM BKN026 BKN034 BKN070 30/22 A3016 RMK AO2
KBQK 251515Z AUTO 06006KT 10SM SCT027 SCT070 30/22 A3016 RMK AO2 LTG DSNT E
KBQK 251455Z AUTO 07006KT 10SM SCT027 SCT039 SCT046 29/22 A3017 RMK AO2 LTG DSNT W
KBQK 251435Z AUTO 06006KT 10SM BKN022 BKN030 BKN043 30/22 A3016 RMK AO2 LTG DSNT E
KBQK 251415Z AUTO 05005KT 10SM SCT020 SCT044 28/22 A3016 RMK AO2
KBQK 251355Z AUTO 03003KT 10SM SCT044 28/23 A3016 RMK AO2
KBQK 251335Z AUTO 00000KT 10SM CLR 27/23 A3015 RMK AO2
KBQK 251315Z AUTO 00000KT 10SM SCT028 SCT033 27/23 A3015 RMK AO2
KBQK 251255Z AUTO 35003KT 10SM SCT031 26/23 A3015 RMK AO2
KBQK 251235Z AUTO 36003KT 10SM CLR 25/23 A3014 RMK AO2
KBQK 251215Z AUTO 00000KT 10SM CLR 23/22 A3013 RMK AO2
KBQK 251155Z AUTO 00000KT 2SM BR CLR 23/21 A3013 RMK AO2 VIS 3/4V5
KBQK 251135Z AUTO 00000KT 1/2SM FG VV005 22/21 A3012 RMK AO2
KBQK 251115Z AUTO 00000KT 5SM BR SCT055 23/22 A3012 RMK AO2
KBQK 251055Z AUTO 00000KT 10SM SCT029 SCT037 BKN043 23/22 A3011 RMK AO2
KBQK 251035Z AUTO 00000KT 7SM BKN027 BKN033 22/21 A3011 RMK AO2
KBQK 251015Z AUTO 00000KT 10SM SCT027 SCT035 BKN043 23/22 A3010 RMK AO2
KBQK 250955Z AUTO 00000KT 10SM BKN027 BKN033 OVC049 22/21 A3010 RMK AO2
KBQK 250935Z AUTO 00000KT 5SM BR SCT027 SCT040 22/21 A3010 RMK AO2
KBQK 250915Z AUTO 00000KT 7SM SCT025 22/21 A3009 RMK AO2 LTG DSNT W
KBQK 250855Z AUTO 00000KT 10SM SCT023 SCT035 SCT042 23/21 A3009 RMK AO2
KBQK 250840Z AUTO 00000KT 10SM SCT023 BKN031 BKN039 23/22 A3009 RMK AO2
KBQK 250815Z AUTO 00000KT 10SM SCT023 BKN033 BKN070 22/21 A3010 RMK AO2
KBQK 250755Z AUTO 00000KT 10SM -RA BKN023 BKN033 BKN070 22/21 A3010 RMK AO2
KBQK 250735Z AUTO 00000KT 3/4SM BR BKN025 22/21 A3010 RMK AO2
KBQK 250715Z AUTO 00000KT 1/4SM FG VV002 21/20 A3010 RMK AO2
KBQK 250655Z AUTO 00000KT 5SM BR CLR 22/21 A3011 RMK AO2
KBQK 250635Z AUTO 00000KT 5SM BR CLR 22/21 A3011 RMK AO2
KBQK 250615Z AUTO 00000KT 10SM CLR 22/21 A3011 RMK AO2
KBQK 250555Z AUTO 00000KT 10SM CLR 23/21 A3011 RMK AO2
KBQK 250535Z AUTO 00000KT 10SM CLR 23/21 A3011 RMK AO2
KBQK 250515Z AUTO 00000KT 10SM CLR 23/22 A3012 RMK AO2
KBQK 250455Z AUTO 00000KT 10SM CLR 23/22 A3012 RMK AO2
KBQK 250435Z AUTO 00000KT 10SM CLR 23/21 A3013 RMK AO2
KBQK 250415Z AUTO 04003KT 10SM CLR 22/21 A3013 RMK AO2
KBQK 250355Z AUTO 00000KT 10SM CLR 22/21 A3013 RMK AO2
KBQK 250335Z AUTO 00000KT 5SM BR CLR 22/21 A3013 RMK AO2
KBQK 250315Z AUTO 00000KT 7SM CLR 23/21 A3013 RMK AO2
KBQK 250255Z AUTO 00000KT 7SM CLR 22/21 A3013 RMK AO2
KBQK 250235Z AUTO 00000KT 10SM CLR 23/22 A3013 RMK AO2
KBQK 250215Z AUTO 00000KT 10SM CLR 23/22 A3013 RMK AO2
KBQK 250155Z AUTO 00000KT 10SM SCT022 SCT028 SCT034 23/22 A3013 RMK AO2
KBQK 250135Z AUTO 00000KT 10SM SCT022 SCT028 SCT037 24/22 A3012 RMK AO2
KBQK 250115Z AUTO 00000KT 10SM CLR 25/22 A3012 RMK AO2
KBQK 250055Z AUTO 25003KT 10SM SCT075 25/22 A3011 RMK AO2
KBQK 250035Z AUTO 20005KT 10SM SCT075 26/22 A3011 RMK AO2
KBQK 250015Z AUTO 19003KT 10SM SCT018 SCT022 SCT027 26/22 A3010 RMK AO2
KBQK 242355Z AUTO 18004KT 10SM SCT018 BKN023 BKN027 26/22 A3009 RMK AO2
KBQK 242335Z AUTO 12004KT 10SM SCT023 27/22 A3008 RMK AO2
KBQK 242315Z AUTO 09005KT 10SM CLR 26/22 A3008 RMK AO2
KBQK 242255Z AUTO 08006KT 10SM SCT065 27/22 A3008 RMK AO2
KBQK 242235Z AUTO 07007KT 10SM CLR 27/22 A3007 RMK AO2
KBQK 242215Z AUTO 06010KT 10SM CLR 28/21 A3007 RMK AO2
KBQK 242155Z AUTO 06010KT 10SM CLR 28/22 A3007 RMK AO2 LTG DSNT W
KBQK 242135Z AUTO 06006KT 10SM SCT085 28/22 A3007 RMK AO2
KBQK 242115Z AUTO 07009KT 10SM SCT060 OVC085 28/22 A3007 RMK AO2
KBQK 242055Z AUTO 06009KT 10SM OVC065 27/22 A3008 RMK AO2
KBQK 242035Z AUTO 05009KT 10SM SCT055 OVC065 27/22 A3008 RMK AO2 LTG DSNT W AND NW
KBQK 242015Z AUTO 05007KT 10SM BKN055 OVC065 27/22 A3008 RMK AO2
KBQK 241955Z AUTO 04005KT 10SM SCT049 OVC055 27/22 A3008 RMK AO2
KBQK 241935Z AUTO 06012KT 10SM SCT043 BKN050 OVC065 26/22 A3008 RMK AO2
KBQK 241915Z AUTO 09012G19KT 10SM SCT025 SCT043 OVC060 27/22 A3009 RMK AO2 LTG DSNT SW AND W
KBQK 241855Z AUTO 08009KT 10SM TS SCT048 BKN060 OVC080 27/22 A3010 RMK AO2 LTG DSNT E THRU W
KBQK 241835Z AUTO 08010KT 10SM SCT046 BKN060 BKN080 28/21 A3010 RMK AO2 LTG DSNT W
KBQK 241815Z AUTO 09013KT 10SM SCT038 OVC065 30/22 A3011 RMK AO2 LTG DSNT SW
KBQK 241755Z AUTO 11010G17KT 10SM SCT018 BKN028 OVC075 29/22 A3011 RMK AO2